sensor_id;sensor_type;location;lat;lon;timestamp;temperature;humidity
15937;DHT22;9163;48.818;8.976;2023-08-24T00:01:53;20.10;88.40
15937;DHT22;9163;48.818;8.976;2023-08-24T00:04:20;20.10;87.70
15937;DHT22;9163;48.818;8.976;2023-08-24T00:06:48;20.00;90.90
15937;DHT22;9163;48.818;8.976;2023-08-24T00:09:17;19.90;93.60
15937;DHT22;9163;48.818;8.976;2023-08-24T00:11:44;19.90;99.90
15937;DHT22;9163;48.818;8.976;2023-08-24T00:14:12;19.80;99.90
15937;DHT22;9163;48.818;8.976;2023-08-24T00:16:39;19.80;99.90
15937;DHT22;9163;48.818;8.976;2023-08-24T00:19:06;19.60;99.90
15937;DHT22;9163;48.818;8.976;2023-08-24T00:21:34;19.50;99.90
15937;DHT22;9163;48.818;8.976;2023-08-24T00:24:01;19.50;99.90
15937;DHT22;9163;48.818;8.976;2023-08-24T00:26:29;19.50;99.90
15937;DHT22;9163;48.818;8.976;2023-08-24T00:28:57;19.50;99.90
15937;DHT22;9163;48.818;8.976;2023-08-24T00:31:24;19.30;99.90
15937;DHT22;9163;48.818;8.976;2023-08-24T00:33:51;19.20;99.90
15937;DHT22;9163;48.818;8.976;2023-08-24T00:36:18;19.10;99.90
15937;DHT22;9163;48.818;8.976;2023-08-24T00:38:46;19.00;99.90
15937;DHT22;9163;48.818;8.976;2023-08-24T00:41:16;19.10;99.90
15937;DHT22;9163;48.818;8.976;2023-08-24T00:43:46;19.10;99.90
15937;DHT22;9163;48.818;8.976;2023-08-24T00:46:13;19.00;99.90
15937;DHT22;9163;48.818;8.976;2023-08-24T00:48:40;19.10;99.90
15937;DHT22;9163;48.818;8.976;2023-08-24T00:51:08;19.20;99.90
15937;DHT22;9163;48.818;8.976;2023-08-24T00:53:36;19.20;99.90
15937;DHT22;9163;48.818;8.976;2023-08-24T00:56:04;19.20;99.90
15937;DHT22;9163;48.818;8.976;2023-08-24T00:58:33;19.20;99.90
15937;DHT22;9163;48.818;8.976;2023-08-24T01:01:01;19.20;99.90
15937;DHT22;9163;48.818;8.976;2023-08-24T01:03:29;19.20;99.90
15937;DHT22;9163;48.818;8.976;2023-08-24T01:05:56;19.30;99.90
15937;DHT22;9163;48.818;8.976;2023-08-24T01:08:24;19.10;99.90
15937;DHT22;9163;48.818;8.976;2023-08-24T01:10:57;19.20;99.90
15937;DHT22;9163;48.818;8.976;2023-08-24T01:13:30;19.20;99.90
15937;DHT22;9163;48.818;8.976;2023-08-24T01:16:04;19.20;99.90
15937;DHT22;9163;48.818;8.976;2023-08-24T01:18:33;19.20;99.90
15937;DHT22;9163;48.818;8.976;2023-08-24T01:21:02;19.20;99.90
15937;DHT22;9163;48.818;8.976;2023-08-24T01:23:37;19.10;99.90
15937;DHT22;9163;48.818;8.976;2023-08-24T01:26:14;19.10;99.90
15937;DHT22;9163;48.818;8.976;2023-08-24T01:28:44;19.00;99.90
15937;DHT22;9163;48.818;8.976;2023-08-24T01:31:13;18.90;99.90
15937;DHT22;9163;48.818;8.976;2023-08-24T01:33:41;18.90;99.90
15937;DHT22;9163;48.818;8.976;2023-08-24T01:36:08;18.90;99.90
15937;DHT22;9163;48.818;8.976;2023-08-24T01:38:36;18.90;99.90
15937;DHT22;9163;48.818;8.976;2023-08-24T01:41:11;19.00;99.90
15937;DHT22;9163;48.818;8.976;2023-08-24T01:43:43;18.90;99.90
15937;DHT22;9163;48.818;8.976;2023-08-24T01:46:14;18.90;99.90
15937;DHT22;9163;48.818;8.976;2023-08-24T01:48:43;18.90;99.90
15937;DHT22;9163;48.818;8.976;2023-08-24T01:51:10;18.90;99.90
15937;DHT22;9163;48.818;8.976;2023-08-24T01:53:39;18.90;99.90
15937;DHT22;9163;48.818;8.976;2023-08-24T01:56:10;19.00;99.90
15937;DHT22;9163;48.818;8.976;2023-08-24T01:58:39;18.90;99.90
15937;DHT22;9163;48.818;8.976;2023-08-24T02:01:08;19.00;99.90
15937;DHT22;9163;48.818;8.976;2023-08-24T02:03:36;18.90;99.90
15937;DHT22;9163;48.818;8.976;2023-08-24T02:06:05;18.90;99.90
15937;DHT22;9163;48.818;8.976;2023-08-24T02:08:32;18.90;99.90
15937;DHT22;9163;48.818;8.976;2023-08-24T02:11:00;18.90;99.90
15937;DHT22;9163;48.818;8.976;2023-08-24T02:13:27;18.90;99.90
15937;DHT22;9163;48.818;8.976;2023-08-24T02:16:02;18.90;99.90
15937;DHT22;9163;48.818;8.976;2023-08-24T02:18:30;18.80;99.90
15937;DHT22;9163;48.818;8.976;2023-08-24T02:20:57;18.80;99.90
15937;DHT22;9163;48.818;8.976;2023-08-24T02:23:24;18.80;99.90
15937;DHT22;9163;48.818;8.976;2023-08-24T02:25:52;18.80;99.90
15937;DHT22;9163;48.818;8.976;2023-08-24T02:28:19;18.80;99.90
15937;DHT22;9163;48.818;8.976;2023-08-24T02:30:46;18.80;99.90
15937;DHT22;9163;48.818;8.976;2023-08-24T02:33:15;18.80;99.90
15937;DHT22;9163;48.818;8.976;2023-08-24T02:35:42;18.90;99.90
15937;DHT22;9163;48.818;8.976;2023-08-24T02:38:10;18.90;99.90
15937;DHT22;9163;48.818;8.976;2023-08-24T02:40:38;18.90;99.90
15937;DHT22;9163;48.818;8.976;2023-08-24T02:43:05;18.90;99.90
15937;DHT22;9163;48.818;8.976;2023-08-24T02:45:32;18.90;99.90
15937;DHT22;9163;48.818;8.976;2023-08-24T02:47:59;18.90;99.90
15937;DHT22;9163;48.818;8.976;2023-08-24T02:50:28;19.00;99.90
15937;DHT22;9163;48.818;8.976;2023-08-24T02:52:56;19.00;99.90
15937;DHT22;9163;48.818;8.976;2023-08-24T02:55:24;19.00;99.90
15937;DHT22;9163;48.818;8.976;2023-08-24T02:57:51;19.10;99.90
15937;DHT22;9163;48.818;8.976;2023-08-24T03:00:18;19.10;99.90
15937;DHT22;9163;48.818;8.976;2023-08-24T03:02:46;19.10;99.90
15937;DHT22;9163;48.818;8.976;2023-08-24T03:05:13;19.00;99.90
15937;DHT22;9163;48.818;8.976;2023-08-24T03:07:41;19.00;99.90
15937;DHT22;9163;48.818;8.976;2023-08-24T03:10:09;18.90;99.90
15937;DHT22;9163;48.818;8.976;2023-08-24T03:12:37;18.80;99.90
15937;DHT22;9163;48.818;8.976;2023-08-24T03:15:05;18.80;99.90
15937;DHT22;9163;48.818;8.976;2023-08-24T03:17:33;18.80;99.90
15937;DHT22;9163;48.818;8.976;2023-08-24T03:20:00;18.70;99.90
15937;DHT22;9163;48.818;8.976;2023-08-24T03:22:27;18.70;99.90
15937;DHT22;9163;48.818;8.976;2023-08-24T03:24:55;18.80;99.90
15937;DHT22;9163;48.818;8.976;2023-08-24T03:27:23;18.80;99.90
15937;DHT22;9163;48.818;8.976;2023-08-24T03:29:53;18.80;99.90
15937;DHT22;9163;48.818;8.976;2023-08-24T03:32:20;18.70;99.90
15937;DHT22;9163;48.818;8.976;2023-08-24T03:34:47;18.80;99.90
15937;DHT22;9163;48.818;8.976;2023-08-24T03:37:14;18.80;99.90
15937;DHT22;9163;48.818;8.976;2023-08-24T03:39:42;18.90;99.90
15937;DHT22;9163;48.818;8.976;2023-08-24T03:42:10;18.80;99.90
15937;DHT22;9163;48.818;8.976;2023-08-24T03:44:37;18.90;99.90
15937;DHT22;9163;48.818;8.976;2023-08-24T03:47:05;18.80;99.90
15937;DHT22;9163;48.818;8.976;2023-08-24T03:49:32;18.70;99.90
15937;DHT22;9163;48.818;8.976;2023-08-24T03:51:59;18.70;99.90
15937;DHT22;9163;48.818;8.976;2023-08-24T03:54:26;18.60;99.90
15937;DHT22;9163;48.818;8.976;2023-08-24T03:56:54;18.60;99.90
15937;DHT22;9163;48.818;8.976;2023-08-24T03:59:22;18.50;99.90
15937;DHT22;9163;48.818;8.976;2023-08-24T04:01:49;18.60;99.90
15937;DHT22;9163;48.818;8.976;2023-08-24T04:04:17;18.50;99.90
15937;DHT22;9163;48.818;8.976;2023-08-24T04:06:44;18.30;99.90
15937;DHT22;9163;48.818;8.976;2023-08-24T04:09:11;18.10;99.90
15937;DHT22;9163;48.818;8.976;2023-08-24T04:11:38;18.10;99.90
15937;DHT22;9163;48.818;8.976;2023-08-24T04:14:06;18.00;99.90
15937;DHT22;9163;48.818;8.976;2023-08-24T04:16:34;17.90;99.90
15937;DHT22;9163;48.818;8.976;2023-08-24T04:19:01;17.90;99.90
15937;DHT22;9163;48.818;8.976;2023-08-24T04:21:28;17.90;99.90
15937;DHT22;9163;48.818;8.976;2023-08-24T04:23:56;18.00;99.90
15937;DHT22;9163;48.818;8.976;2023-08-24T04:26:23;18.00;99.90
15937;DHT22;9163;48.818;8.976;2023-08-24T04:28:50;18.20;99.90
15937;DHT22;9163;48.818;8.976;2023-08-24T04:31:18;18.30;99.90
15937;DHT22;9163;48.818;8.976;2023-08-24T04:33:46;18.30;99.90
15937;DHT22;9163;48.818;8.976;2023-08-24T04:36:13;18.30;99.90
15937;DHT22;9163;48.818;8.976;2023-08-24T04:38:41;18.40;99.90
15937;DHT22;9163;48.818;8.976;2023-08-24T04:41:09;18.40;99.90
15937;DHT22;9163;48.818;8.976;2023-08-24T04:43:38;18.40;99.90
15937;DHT22;9163;48.818;8.976;2023-08-24T04:46:05;18.40;99.90
15937;DHT22;9163;48.818;8.976;2023-08-24T04:48:33;18.40;99.90
15937;DHT22;9163;48.818;8.976;2023-08-24T04:51:02;18.50;99.90
15937;DHT22;9163;48.818;8.976;2023-08-24T04:53:29;18.50;99.90
15937;DHT22;9163;48.818;8.976;2023-08-24T04:55:57;18.50;99.90
15937;DHT22;9163;48.818;8.976;2023-08-24T04:58:24;18.50;99.90
15937;DHT22;9163;48.818;8.976;2023-08-24T05:00:52;18.60;99.90
15937;DHT22;9163;48.818;8.976;2023-08-24T05:03:19;18.50;99.90
15937;DHT22;9163;48.818;8.976;2023-08-24T05:05:47;18.50;99.90
15937;DHT22;9163;48.818;8.976;2023-08-24T05:08:16;18.40;99.90
15937;DHT22;9163;48.818;8.976;2023-08-24T05:10:43;18.50;99.90
15937;DHT22;9163;48.818;8.976;2023-08-24T05:13:11;18.50;99.90
15937;DHT22;9163;48.818;8.976;2023-08-24T05:15:38;18.50;99.90
15937;DHT22;9163;48.818;8.976;2023-08-24T05:18:06;18.60;99.90
15937;DHT22;9163;48.818;8.976;2023-08-24T05:20:33;18.60;99.90
15937;DHT22;9163;48.818;8.976;2023-08-24T05:23:00;18.60;99.90
15937;DHT22;9163;48.818;8.976;2023-08-24T05:25:29;18.80;99.90
15937;DHT22;9163;48.818;8.976;2023-08-24T05:27:56;18.90;99.90
15937;DHT22;9163;48.818;8.976;2023-08-24T05:30:23;18.90;99.90
15937;DHT22;9163;48.818;8.976;2023-08-24T05:32:51;19.00;99.90
15937;DHT22;9163;48.818;8.976;2023-08-24T05:35:18;19.00;99.90
15937;DHT22;9163;48.818;8.976;2023-08-24T05:37:45;19.10;99.90
15937;DHT22;9163;48.818;8.976;2023-08-24T05:40:13;19.10;99.90
15937;DHT22;9163;48.818;8.976;2023-08-24T05:42:41;19.20;99.90
15937;DHT22;9163;48.818;8.976;2023-08-24T05:45:09;19.30;99.90
15937;DHT22;9163;48.818;8.976;2023-08-24T05:47:38;19.40;99.90
15937;DHT22;9163;48.818;8.976;2023-08-24T05:50:06;19.60;99.90
15937;DHT22;9163;48.818;8.976;2023-08-24T05:52:33;19.60;99.90
15937;DHT22;9163;48.818;8.976;2023-08-24T05:55:00;19.60;99.90
15937;DHT22;9163;48.818;8.976;2023-08-24T05:57:28;19.80;99.90
15937;DHT22;9163;48.818;8.976;2023-08-24T05:59:56;19.90;99.90
15937;DHT22;9163;48.818;8.976;2023-08-24T06:02:23;19.80;99.90
15937;DHT22;9163;48.818;8.976;2023-08-24T06:04:51;19.90;99.90
15937;DHT22;9163;48.818;8.976;2023-08-24T06:07:18;19.90;99.90
15937;DHT22;9163;48.818;8.976;2023-08-24T06:09:45;19.80;99.90
15937;DHT22;9163;48.818;8.976;2023-08-24T06:12:12;19.90;99.90
15937;DHT22;9163;48.818;8.976;2023-08-24T06:14:40;19.80;99.90
15937;DHT22;9163;48.818;8.976;2023-08-24T06:17:08;19.80;99.90
15937;DHT22;9163;48.818;8.976;2023-08-24T06:19:35;19.90;99.90
15937;DHT22;9163;48.818;8.976;2023-08-24T06:22:03;19.90;99.90
15937;DHT22;9163;48.818;8.976;2023-08-24T06:24:30;20.00;99.90
15937;DHT22;9163;48.818;8.976;2023-08-24T06:26:57;20.00;99.90
15937;DHT22;9163;48.818;8.976;2023-08-24T06:29:25;20.10;99.90
15937;DHT22;9163;48.818;8.976;2023-08-24T06:31:52;20.20;99.90
15937;DHT22;9163;48.818;8.976;2023-08-24T06:34:21;20.20;99.90
15937;DHT22;9163;48.818;8.976;2023-08-24T06:36:49;20.30;99.90
15937;DHT22;9163;48.818;8.976;2023-08-24T06:39:17;20.40;99.90
15937;DHT22;9163;48.818;8.976;2023-08-24T06:41:45;20.60;99.90
15937;DHT22;9163;48.818;8.976;2023-08-24T06:44:12;20.60;99.90
15937;DHT22;9163;48.818;8.976;2023-08-24T06:46:40;20.60;99.90
15937;DHT22;9163;48.818;8.976;2023-08-24T06:49:07;20.70;99.90
15937;DHT22;9163;48.818;8.976;2023-08-24T06:51:36;20.80;99.90
15937;DHT22;9163;48.818;8.976;2023-08-24T06:54:03;20.90;99.90
15937;DHT22;9163;48.818;8.976;2023-08-24T06:56:30;21.10;99.90
15937;DHT22;9163;48.818;8.976;2023-08-24T06:58:58;21.20;99.90
15937;DHT22;9163;48.818;8.976;2023-08-24T07:01:25;21.40;99.90
15937;DHT22;9163;48.818;8.976;2023-08-24T07:03:52;21.50;99.90
15937;DHT22;9163;48.818;8.976;2023-08-24T07:06:19;21.60;99.00
15937;DHT22;9163;48.818;8.976;2023-08-24T07:08:48;21.80;99.90
15937;DHT22;9163;48.818;8.976;2023-08-24T07:11:15;21.90;96.90
15937;DHT22;9163;48.818;8.976;2023-08-24T07:13:43;22.00;77.50
15937;DHT22;9163;48.818;8.976;2023-08-24T07:16:10;22.10;67.40
15937;DHT22;9163;48.818;8.976;2023-08-24T07:18:38;22.20;64.70
15937;DHT22;9163;48.818;8.976;2023-08-24T07:21:05;22.30;59.60
15937;DHT22;9163;48.818;8.976;2023-08-24T07:23:32;22.30;53.50
15937;DHT22;9163;48.818;8.976;2023-08-24T07:26:01;22.40;56.50
15937;DHT22;9163;48.818;8.976;2023-08-24T07:28:29;22.40;56.00
15937;DHT22;9163;48.818;8.976;2023-08-24T07:30:56;22.70;43.40
15937;DHT22;9163;48.818;8.976;2023-08-24T07:33:23;23.10;36.50
15937;DHT22;9163;48.818;8.976;2023-08-24T07:35:52;23.60;29.40
15937;DHT22;9163;48.818;8.976;2023-08-24T07:38:19;24.00;31.30
15937;DHT22;9163;48.818;8.976;2023-08-24T07:40:47;24.40;30.10
15937;DHT22;9163;48.818;8.976;2023-08-24T07:43:15;24.70;20.30
15937;DHT22;9163;48.818;8.976;2023-08-24T07:45:43;25.00;12.10
15937;DHT22;9163;48.818;8.976;2023-08-24T07:48:10;25.40;11.20
15937;DHT22;9163;48.818;8.976;2023-08-24T07:50:37;25.80;1.00
15937;DHT22;9163;48.818;8.976;2023-08-24T07:53:05;26.20;1.00
15937;DHT22;9163;48.818;8.976;2023-08-24T07:55:32;26.40;1.00
15937;DHT22;9163;48.818;8.976;2023-08-24T07:57:59;26.50;1.00
15937;DHT22;9163;48.818;8.976;2023-08-24T08:00:28;26.90;1.00
15937;DHT22;9163;48.818;8.976;2023-08-24T08:02:55;27.20;1.00
15937;DHT22;9163;48.818;8.976;2023-08-24T08:05:22;27.40;1.00
15937;DHT22;9163;48.818;8.976;2023-08-24T08:07:49;27.70;1.00
15937;DHT22;9163;48.818;8.976;2023-08-24T08:10:17;27.90;1.00
15937;DHT22;9163;48.818;8.976;2023-08-24T08:12:46;28.00;1.00
15937;DHT22;9163;48.818;8.976;2023-08-24T08:15:13;28.30;1.00
15937;DHT22;9163;48.818;8.976;2023-08-24T08:17:42;28.40;1.00
15937;DHT22;9163;48.818;8.976;2023-08-24T08:20:09;28.70;1.00
15937;DHT22;9163;48.818;8.976;2023-08-24T08:22:37;28.60;1.00
15937;DHT22;9163;48.818;8.976;2023-08-24T08:25:05;28.90;1.00
15937;DHT22;9163;48.818;8.976;2023-08-24T08:27:33;29.10;1.00
15937;DHT22;9163;48.818;8.976;2023-08-24T08:30:00;29.40;1.00
15937;DHT22;9163;48.818;8.976;2023-08-24T08:32:30;29.60;1.00
15937;DHT22;9163;48.818;8.976;2023-08-24T08:34:59;29.80;1.00
15937;DHT22;9163;48.818;8.976;2023-08-24T08:37:27;30.20;1.00
15937;DHT22;9163;48.818;8.976;2023-08-24T08:39:54;30.30;1.00
15937;DHT22;9163;48.818;8.976;2023-08-24T08:42:21;30.60;1.00
15937;DHT22;9163;48.818;8.976;2023-08-24T08:44:50;31.00;1.00
15937;DHT22;9163;48.818;8.976;2023-08-24T08:47:20;31.00;1.00
15937;DHT22;9163;48.818;8.976;2023-08-24T08:49:48;31.30;1.00
15937;DHT22;9163;48.818;8.976;2023-08-24T08:52:17;31.40;1.00
15937;DHT22;9163;48.818;8.976;2023-08-24T08:54:44;31.50;1.00
15937;DHT22;9163;48.818;8.976;2023-08-24T08:57:12;31.60;1.00
15937;DHT22;9163;48.818;8.976;2023-08-24T08:59:40;31.60;1.00
15937;DHT22;9163;48.818;8.976;2023-08-24T09:02:13;31.80;1.00
15937;DHT22;9163;48.818;8.976;2023-08-24T09:04:42;31.90;1.00
15937;DHT22;9163;48.818;8.976;2023-08-24T09:07:12;32.00;1.00
15937;DHT22;9163;48.818;8.976;2023-08-24T09:09:42;32.20;1.00
15937;DHT22;9163;48.818;8.976;2023-08-24T09:12:09;32.30;1.00
15937;DHT22;9163;48.818;8.976;2023-08-24T09:14:36;32.30;1.00
15937;DHT22;9163;48.818;8.976;2023-08-24T09:17:04;32.50;1.00
15937;DHT22;9163;48.818;8.976;2023-08-24T09:19:33;32.60;1.00
15937;DHT22;9163;48.818;8.976;2023-08-24T09:22:02;32.80;1.00
15937;DHT22;9163;48.818;8.976;2023-08-24T09:24:30;33.30;1.00
15937;DHT22;9163;48.818;8.976;2023-08-24T09:26:59;33.60;1.00
15937;DHT22;9163;48.818;8.976;2023-08-24T09:29:27;33.50;1.00
15937;DHT22;9163;48.818;8.976;2023-08-24T09:31:55;33.50;1.00
15937;DHT22;9163;48.818;8.976;2023-08-24T09:34:24;33.90;1.00
15937;DHT22;9163;48.818;8.976;2023-08-24T09:36:53;34.10;1.00
15937;DHT22;9163;48.818;8.976;2023-08-24T09:39:20;34.30;99.90
15937;DHT22;9163;48.818;8.976;2023-08-24T09:41:50;34.10;99.90
15937;DHT22;9163;48.818;8.976;2023-08-24T09:44:19;34.40;99.90
15937;DHT22;9163;48.818;8.976;2023-08-24T09:46:46;34.00;99.90
15937;DHT22;9163;48.818;8.976;2023-08-24T09:49:13;33.80;99.90
15937;DHT22;9163;48.818;8.976;2023-08-24T09:51:41;34.00;99.90
15937;DHT22;9163;48.818;8.976;2023-08-24T09:54:11;34.40;99.90
15937;DHT22;9163;48.818;8.976;2023-08-24T09:56:40;34.60;99.90
15937;DHT22;9163;48.818;8.976;2023-08-24T09:59:11;34.30;99.90
15937;DHT22;9163;48.818;8.976;2023-08-24T10:01:43;34.20;99.90
15937;DHT22;9163;48.818;8.976;2023-08-24T10:04:12;34.60;99.90
15937;DHT22;9163;48.818;8.976;2023-08-24T10:06:40;34.40;99.90
15937;DHT22;9163;48.818;8.976;2023-08-24T10:09:21;34.40;99.90
15937;DHT22;9163;48.818;8.976;2023-08-24T10:11:55;34.70;99.90
15937;DHT22;9163;48.818;8.976;2023-08-24T10:14:28;35.20;99.90
15937;DHT22;9163;48.818;8.976;2023-08-24T10:16:59;35.40;99.90
15937;DHT22;9163;48.818;8.976;2023-08-24T10:19:28;35.80;99.90
15937;DHT22;9163;48.818;8.976;2023-08-24T10:21:57;35.80;97.10
15937;DHT22;9163;48.818;8.976;2023-08-24T10:24:28;36.10;70.60
15937;DHT22;9163;48.818;8.976;2023-08-24T10:26:57;35.50;8.70
15937;DHT22;9163;48.818;8.976;2023-08-24T10:29:25;35.80;32.30
15937;DHT22;9163;48.818;8.976;2023-08-24T10:31:54;36.10;95.80
15937;DHT22;9163;48.818;8.976;2023-08-24T10:34:23;35.80;1.00
15937;DHT22;9163;48.818;8.976;2023-08-24T10:36:51;35.40;1.00
15937;DHT22;9163;48.818;8.976;2023-08-24T10:39:27;34.70;1.00
15937;DHT22;9163;48.818;8.976;2023-08-24T10:41:54;35.30;1.00
15937;DHT22;9163;48.818;8.976;2023-08-24T10:44:25;35.70;1.00
15937;DHT22;9163;48.818;8.976;2023-08-24T10:47:13;36.10;1.00
15937;DHT22;9163;48.818;8.976;2023-08-24T10:49:42;35.50;1.00
15937;DHT22;9163;48.818;8.976;2023-08-24T10:52:19;35.30;1.00
15937;DHT22;9163;48.818;8.976;2023-08-24T10:54:47;35.70;1.00
15937;DHT22;9163;48.818;8.976;2023-08-24T10:57:20;36.20;1.00
15937;DHT22;9163;48.818;8.976;2023-08-24T11:00:02;36.20;1.00
15937;DHT22;9163;48.818;8.976;2023-08-24T11:02:41;36.10;1.00
15937;DHT22;9163;48.818;8.976;2023-08-24T11:05:20;36.50;1.00
15937;DHT22;9163;48.818;8.976;2023-08-24T11:07:49;36.30;1.00
15937;DHT22;9163;48.818;8.976;2023-08-24T11:10:17;35.70;1.00
15937;DHT22;9163;48.818;8.976;2023-08-24T11:13:07;35.90;1.00
15937;DHT22;9163;48.818;8.976;2023-08-24T11:15:37;36.60;1.00
15937;DHT22;9163;48.818;8.976;2023-08-24T11:18:22;37.20;1.00
15937;DHT22;9163;48.818;8.976;2023-08-24T11:20:53;37.90;1.00
15937;DHT22;9163;48.818;8.976;2023-08-24T11:23:22;37.80;1.00
15937;DHT22;9163;48.818;8.976;2023-08-24T11:25:51;37.10;1.00
15937;DHT22;9163;48.818;8.976;2023-08-24T11:28:21;36.90;1.00
15937;DHT22;9163;48.818;8.976;2023-08-24T11:30:48;37.10;1.00
15937;DHT22;9163;48.818;8.976;2023-08-24T11:33:17;37.70;1.00
15937;DHT22;9163;48.818;8.976;2023-08-24T11:35:45;38.20;1.00
15937;DHT22;9163;48.818;8.976;2023-08-24T11:38:14;37.60;1.00
15937;DHT22;9163;48.818;8.976;2023-08-24T11:40:42;37.90;1.00
15937;DHT22;9163;48.818;8.976;2023-08-24T11:43:09;38.40;1.00
15937;DHT22;9163;48.818;8.976;2023-08-24T11:45:37;38.00;1.00
15937;DHT22;9163;48.818;8.976;2023-08-24T11:48:06;36.80;1.00
15937;DHT22;9163;48.818;8.976;2023-08-24T11:50:34;36.90;1.00
15937;DHT22;9163;48.818;8.976;2023-08-24T11:53:01;37.10;1.00
15937;DHT22;9163;48.818;8.976;2023-08-24T11:55:30;36.40;1.00
15937;DHT22;9163;48.818;8.976;2023-08-24T11:57:57;36.20;1.00
15937;DHT22;9163;48.818;8.976;2023-08-24T12:00:26;36.30;1.00
15937;DHT22;9163;48.818;8.976;2023-08-24T12:02:53;36.50;1.00
15937;DHT22;9163;48.818;8.976;2023-08-24T12:05:21;36.50;1.00
15937;DHT22;9163;48.818;8.976;2023-08-24T12:07:50;36.20;1.00
15937;DHT22;9163;48.818;8.976;2023-08-24T12:10:18;36.40;1.00
15937;DHT22;9163;48.818;8.976;2023-08-24T12:12:47;36.70;1.00
15937;DHT22;9163;48.818;8.976;2023-08-24T12:15:15;36.90;1.00
15937;DHT22;9163;48.818;8.976;2023-08-24T12:17:43;37.40;1.00
15937;DHT22;9163;48.818;8.976;2023-08-24T12:20:17;37.20;1.00
15937;DHT22;9163;48.818;8.976;2023-08-24T12:22:50;37.10;1.00
15937;DHT22;9163;48.818;8.976;2023-08-24T12:25:18;36.70;1.00
15937;DHT22;9163;48.818;8.976;2023-08-24T12:27:47;37.10;1.00
15937;DHT22;9163;48.818;8.976;2023-08-24T12:30:14;37.00;1.00
15937;DHT22;9163;48.818;8.976;2023-08-24T12:32:42;36.10;1.00
15937;DHT22;9163;48.818;8.976;2023-08-24T12:35:09;35.80;1.00
15937;DHT22;9163;48.818;8.976;2023-08-24T12:37:36;35.40;1.00
15937;DHT22;9163;48.818;8.976;2023-08-24T12:40:04;35.30;1.00
15937;DHT22;9163;48.818;8.976;2023-08-24T12:42:32;36.20;1.00
15937;DHT22;9163;48.818;8.976;2023-08-24T12:45:01;36.20;1.00
15937;DHT22;9163;48.818;8.976;2023-08-24T12:47:30;36.40;1.00
15937;DHT22;9163;48.818;8.976;2023-08-24T12:49:58;36.40;1.00
15937;DHT22;9163;48.818;8.976;2023-08-24T12:52:26;35.90;1.00
15937;DHT22;9163;48.818;8.976;2023-08-24T12:54:53;35.80;99.90
15937;DHT22;9163;48.818;8.976;2023-08-24T12:57:20;35.50;1.00
15937;DHT22;9163;48.818;8.976;2023-08-24T12:59:47;35.30;99.90
15937;DHT22;9163;48.818;8.976;2023-08-24T13:02:16;34.90;99.90
15937;DHT22;9163;48.818;8.976;2023-08-24T13:04:43;35.10;1.00
15937;DHT22;9163;48.818;8.976;2023-08-24T13:07:11;35.80;1.00
15937;DHT22;9163;48.818;8.976;2023-08-24T13:09:38;36.00;99.90
15937;DHT22;9163;48.818;8.976;2023-08-24T13:12:05;35.70;99.90
15937;DHT22;9163;48.818;8.976;2023-08-24T13:14:33;35.20;99.90
15937;DHT22;9163;48.818;8.976;2023-08-24T13:17:00;35.20;99.90
15937;DHT22;9163;48.818;8.976;2023-08-24T13:19:29;35.20;99.90
15937;DHT22;9163;48.818;8.976;2023-08-24T13:21:56;35.20;99.90
15937;DHT22;9163;48.818;8.976;2023-08-24T13:24:23;35.00;99.90
15937;DHT22;9163;48.818;8.976;2023-08-24T13:26:51;35.60;99.90
15937;DHT22;9163;48.818;8.976;2023-08-24T13:29:18;35.60;99.90
15937;DHT22;9163;48.818;8.976;2023-08-24T13:31:45;35.70;1.00
15937;DHT22;9163;48.818;8.976;2023-08-24T13:34:13;36.20;1.00
15937;DHT22;9163;48.818;8.976;2023-08-24T13:36:42;36.40;99.90
15937;DHT22;9163;48.818;8.976;2023-08-24T13:39:09;36.40;1.00
15937;DHT22;9163;48.818;8.976;2023-08-24T13:41:36;36.20;99.90
15937;DHT22;9163;48.818;8.976;2023-08-24T13:44:04;35.60;99.90
15937;DHT22;9163;48.818;8.976;2023-08-24T13:46:31;36.00;99.90
15937;DHT22;9163;48.818;8.976;2023-08-24T13:48:58;36.00;99.90
15937;DHT22;9163;48.818;8.976;2023-08-24T13:51:26;35.70;99.90
15937;DHT22;9163;48.818;8.976;2023-08-24T13:53:54;35.90;99.90
15937;DHT22;9163;48.818;8.976;2023-08-24T13:56:21;36.10;99.90
15937;DHT22;9163;48.818;8.976;2023-08-24T13:58:49;36.80;99.90
15937;DHT22;9163;48.818;8.976;2023-08-24T14:01:16;37.10;99.90
15937;DHT22;9163;48.818;8.976;2023-08-24T14:03:43;37.20;1.00
15937;DHT22;9163;48.818;8.976;2023-08-24T14:06:10;36.80;99.90
15937;DHT22;9163;48.818;8.976;2023-08-24T14:08:38;35.90;99.90
15937;DHT22;9163;48.818;8.976;2023-08-24T14:11:06;34.80;99.90
15937;DHT22;9163;48.818;8.976;2023-08-24T14:13:34;34.80;99.90
15937;DHT22;9163;48.818;8.976;2023-08-24T14:16:01;34.60;99.90
15937;DHT22;9163;48.818;8.976;2023-08-24T14:18:30;34.50;99.90
15937;DHT22;9163;48.818;8.976;2023-08-24T14:20:57;34.30;99.90
15937;DHT22;9163;48.818;8.976;2023-08-24T14:23:24;33.80;99.90
15937;DHT22;9163;48.818;8.976;2023-08-24T14:25:51;33.50;99.90
15937;DHT22;9163;48.818;8.976;2023-08-24T14:28:21;33.40;99.90
15937;DHT22;9163;48.818;8.976;2023-08-24T14:30:49;33.10;99.90
15937;DHT22;9163;48.818;8.976;2023-08-24T14:33:16;33.00;99.90
15937;DHT22;9163;48.818;8.976;2023-08-24T14:35:50;33.00;99.90
15937;DHT22;9163;48.818;8.976;2023-08-24T14:38:18;32.90;99.90
15937;DHT22;9163;48.818;8.976;2023-08-24T14:40:45;32.90;99.90
15937;DHT22;9163;48.818;8.976;2023-08-24T14:43:12;32.60;99.90
15937;DHT22;9163;48.818;8.976;2023-08-24T14:45:41;32.20;99.90
15937;DHT22;9163;48.818;8.976;2023-08-24T14:48:08;31.50;99.90
15937;DHT22;9163;48.818;8.976;2023-08-24T14:50:38;29.60;99.90
15937;DHT22;9163;48.818;8.976;2023-08-24T14:53:06;27.90;1.00
15937;DHT22;9163;48.818;8.976;2023-08-24T14:55:34;26.70;86.40
15937;DHT22;9163;48.818;8.976;2023-08-24T14:58:04;26.10;99.90
15937;DHT22;9163;48.818;8.976;2023-08-24T15:00:31;25.90;99.90
15937;DHT22;9163;48.818;8.976;2023-08-24T15:03:00;25.60;99.90
15937;DHT22;9163;48.818;8.976;2023-08-24T15:05:28;25.30;99.90
15937;DHT22;9163;48.818;8.976;2023-08-24T15:07:55;25.00;99.90
15937;DHT22;9163;48.818;8.976;2023-08-24T15:10:23;24.80;99.90
15937;DHT22;9163;48.818;8.976;2023-08-24T15:12:50;24.70;99.90
15937;DHT22;9163;48.818;8.976;2023-08-24T15:15:17;24.60;99.90
15937;DHT22;9163;48.818;8.976;2023-08-24T15:17:44;24.70;99.90
15937;DHT22;9163;48.818;8.976;2023-08-24T15:20:26;24.80;99.90
15937;DHT22;9163;48.818;8.976;2023-08-24T15:23:03;24.90;99.90
15937;DHT22;9163;48.818;8.976;2023-08-24T15:25:30;25.00;99.90
15937;DHT22;9163;48.818;8.976;2023-08-24T15:27:58;25.10;99.90
15937;DHT22;9163;48.818;8.976;2023-08-24T15:30:25;25.10;99.90
15937;DHT22;9163;48.818;8.976;2023-08-24T15:32:52;25.00;99.90
15937;DHT22;9163;48.818;8.976;2023-08-24T15:35:21;25.00;99.90
15937;DHT22;9163;48.818;8.976;2023-08-24T15:37:48;25.10;99.90
15937;DHT22;9163;48.818;8.976;2023-08-24T15:40:15;25.10;99.90
15937;DHT22;9163;48.818;8.976;2023-08-24T15:42:43;25.10;99.90
15937;DHT22;9163;48.818;8.976;2023-08-24T15:45:10;25.20;99.90
15937;DHT22;9163;48.818;8.976;2023-08-24T15:47:38;25.00;99.90
15937;DHT22;9163;48.818;8.976;2023-08-24T15:50:05;25.00;99.90
15937;DHT22;9163;48.818;8.976;2023-08-24T15:52:34;24.90;99.90
15937;DHT22;9163;48.818;8.976;2023-08-24T15:55:02;24.70;99.90
15937;DHT22;9163;48.818;8.976;2023-08-24T15:57:30;24.80;99.90